Texas General Land Office
 Texas General Land Office
 George P. Bush, Commissioner

 Oil Spill Prevention
 & Response

Texas Automated Buoy System
Real Time Ocean Observations
Supporting Oil Spill Prevention and
Response since 1995
Geochemical and Environmental Research Group

NOAA - NDBC Buoy 42020 -- Texas Automated Buoy System

NBDC Buoy 42020
Corpus Christi, TX
Conditions at 06/25/2019 11:20 UTC (06/25/2019 06:20 CDT)
26° 57.0000'N   96° 42.0000'W
50nm Southeast of Corpus Christi, TX
Anemometer height: 5m
Water Depth: 252 feet (77 meters)
Wind: 3.0 m/s (5.8 kts)
          From 160°T (SSE)
Wind Gust: 4.00 m/s (7.8 kts) Pressure: 1012.1 mb (29.89 inHg)
Air Temp: 28°C (83 °F) Dewpoint: 25°C (78°F) Relative Humidity: 85%
Sea Surf Temp: 29 °C (84 °F) Wave Height: 1.6m (5.2 ft) Wave Period: 8
  


IMPORTANT: Notice to Mariners


   Date      Time    Speed     Dir   Gust    AtmPr   AirT   DewPt   WaterT  RelH  WvHt  WvPer
          |  (UTC) | (m/s) |  (°T) | (m/s) |  (mb) |  (°C) |  (°C) |  (°C) | (%) | (m) | (s) |
==========+========+=======+=======+=======+=======+=======+=======+=======+=====+=====+=====+
06/25/2019 00:00:00    15.0      80    19.0 1010.20    27.2    25.9    28.7    92 -99.0  -99
06/25/2019 00:10:00    15.0      80    20.0 1010.30    27.2    25.7    28.7    91 -99.0  -99
06/25/2019 00:20:00    15.0      80    20.0 1010.70    27.5    25.5    28.7    88 -99.0  -99
06/25/2019 00:30:00    15.0      80    20.0 1010.80    27.5    25.4    28.7    88 -99.0  -99
06/25/2019 00:40:00    16.0      80    19.0 1010.70    27.4    25.2    28.7    87 -99.0  -99
06/25/2019 00:50:00    15.0      80    20.0 1010.70    27.5    24.9    28.7    85   3.5    8
06/25/2019 01:00:00    15.0      90    21.0 1011.50    27.6    25.0    28.7    85 -99.0  -99
06/25/2019 01:10:00    15.0      90    19.0 1010.50    27.6    24.9    28.7    85 -99.0  -99
06/25/2019 01:20:00    15.0      90    18.0 1010.40    27.3    24.6    28.7    85 -99.0  -99
06/25/2019 01:30:00    15.0      90    19.0 1010.30    27.1    24.6   -99.0    86 -99.0  -99
06/25/2019 01:40:00    15.0     100    19.0 1010.20    27.1    24.8    28.7    87 -99.0  -99
06/25/2019 01:50:00    15.0     100    18.0 1010.80    27.0    24.5    28.7    86   3.6    8
06/25/2019 02:00:00    14.0     100    18.0 1011.20    27.4    24.5    28.7    84 -99.0  -99
06/25/2019 02:10:00    14.0     100    19.0 1011.40    27.8    24.7    28.7    83 -99.0  -99
06/25/2019 02:20:00    13.0     100    17.0 1011.70    27.8    24.8    28.7    83 -99.0  -99
06/25/2019 02:30:00    13.0     100    17.0 1011.80    27.2    24.6    28.7    85 -99.0  -99
06/25/2019 02:40:00    12.0     100    14.0 1012.30    27.0    24.9    28.7    88 -99.0  -99
06/25/2019 02:50:00    12.0     110    15.0 1012.60    27.1    24.6    28.7    86   3.5    9
06/25/2019 03:00:00    11.0     110    14.0 1012.90    27.4    24.2    28.7    82 -99.0  -99
06/25/2019 03:10:00    10.0     110    12.0 1013.10    27.7    24.8    28.7    84 -99.0  -99
06/25/2019 03:20:00    10.0     110    12.0 1013.10    27.8    25.3    28.7    86 -99.0  -99
06/25/2019 03:30:00    10.0     110    12.0 1013.10    27.9    25.7    28.7    87 -99.0  -99
06/25/2019 03:40:00     9.0     110    11.0 1013.10    28.0    26.0    28.7    88 -99.0  -99
06/25/2019 03:50:00     9.0     120    12.0 1013.10    28.0    26.1    28.7    89   2.7    8
06/25/2019 04:00:00    10.0     120    12.0 1012.90    27.5    25.2    28.7    87 -99.0  -99
06/25/2019 04:10:00     9.0     120    11.0 1013.00    27.7    24.9    28.7    84 -99.0  -99
06/25/2019 04:20:00     8.0     130    10.0 1013.10    28.1    24.9    28.8    82 -99.0  -99
06/25/2019 04:30:00     9.0     130    10.0 1013.10    28.4    24.9    28.8    81 -99.0  -99
06/25/2019 04:40:00     8.0     120    10.0 1012.90    28.5    25.4    28.8    83   2.7  -99
06/25/2019 04:50:00     9.0     120    11.0 1012.60    28.5    25.7    28.8    84   2.7    8
06/25/2019 05:00:00     9.0     130    11.0 1012.90    28.6    26.1    28.8    86 -99.0  -99
06/25/2019 05:10:00     8.0     130    10.0 1013.10    28.7    26.4    28.8    87 -99.0  -99
06/25/2019 05:20:00     8.0     140    11.0 1013.40    28.7    26.5    28.8    87 -99.0  -99
06/25/2019 05:30:00     8.0     140    10.0 1013.40    28.7    26.6    28.8    88 -99.0  -99
06/25/2019 05:40:00     7.0     150    10.0 1013.20    28.7    26.7    28.8    88   2.4  -99
06/25/2019 05:50:00     7.0     160     9.0 1013.00    28.6    26.7    28.8    89   2.4    8
06/25/2019 06:00:00     7.0     160     9.0 1013.00    28.6    26.8    28.8    90 -99.0  -99
06/25/2019 06:10:00     7.0     170    10.0 1013.40    28.7    27.1    28.8    91 -99.0  -99
06/25/2019 06:20:00     8.0     180     9.0 1013.50    28.7    27.3    28.8    92 -99.0  -99
06/25/2019 06:30:00     8.0     190    10.0 1013.30    28.6    27.4    28.8    93 -99.0  -99
06/25/2019 06:40:00     7.0     190     9.0 1013.00    28.5    27.3    28.7    93   2.0  -99
06/25/2019 06:50:00     8.0     190    10.0 1012.80    28.4    27.3    28.7    93   2.0    7
06/25/2019 07:00:00     9.0     200    11.0 1012.50    28.4    27.4    28.7    94 -99.0  -99
06/25/2019 07:10:00     9.0     210    11.0 1012.00    28.3    27.4    28.7    94 -99.0  -99
06/25/2019 07:20:00     9.0     210    11.0 1011.50    28.2    27.3    28.7    94 -99.0  -99
06/25/2019 07:30:00     9.0     210    11.0 1011.20    28.2    27.4    28.7    95 -99.0  -99
06/25/2019 07:40:00     8.0     210    10.0 1011.20    28.1    27.4    28.7    96   1.7  -99
06/25/2019 07:50:00     9.0     220    11.0 1011.40    27.9    27.3    28.7    96   1.7    8
06/25/2019 08:00:00     9.0     220    11.0 1011.60    27.7    27.3    28.7    97 -99.0  -99
06/25/2019 08:10:00     9.0     220    11.0 1011.60    27.6    27.2    28.7    97 -99.0  -99
06/25/2019 08:20:00    10.0     230    13.0 1011.60    27.2    26.8    28.7    97 -99.0  -99
06/25/2019 08:30:00    10.0     230    12.0 1011.70    26.8    26.3    28.7    97 -99.0  -99
06/25/2019 08:40:00     9.0     220    11.0 1011.70    26.6    25.9    28.6    95 -99.0  -99
06/25/2019 08:50:00     8.0     220    10.0 1011.40    26.9    25.9    28.6    94   1.7    8
06/25/2019 09:00:00     7.0     220     9.0 1011.20    27.0    25.7    28.6    92 -99.0  -99
06/25/2019 09:10:00     8.0     210    11.0 1011.20    27.1    25.4    28.6    90 -99.0  -99
06/25/2019 09:20:00     7.0     210     9.0 1011.10    27.3    25.0    28.6    87 -99.0  -99
06/25/2019 09:30:00     6.0     210     9.0 1011.00    27.4    24.8    28.6    85 -99.0  -99
06/25/2019 09:40:00     6.0     220     8.0 1010.90    27.8    24.7    28.6    83   1.5  -99
06/25/2019 09:50:00     4.0     210     6.0 1012.00    27.8    24.8    28.6    83   1.5  -99
06/25/2019 10:00:00     3.0     180     4.0 1011.20    28.1    25.1    28.6    83 -99.0  -99
06/25/2019 10:10:00     4.0     170     4.0 1011.50    28.2    25.0    28.6    82 -99.0  -99
06/25/2019 10:20:00     4.0     160     5.0 1011.70    28.1    24.9    28.6    82 -99.0  -99
06/25/2019 10:30:00     3.0     160     4.0 1011.90    28.2    25.1    28.7    83 -99.0  -99
06/25/2019 10:40:00     3.0     160     4.0 1012.20    28.2    25.2    28.7    83   1.6  -99
06/25/2019 10:50:00     4.0     180     6.0 1012.20    28.2    25.3    28.7    84   1.6    8
06/25/2019 11:00:00     4.0     170     5.0 1012.00    28.2    25.4    28.7    84 -99.0  -99
06/25/2019 11:10:00     4.0     160     5.0 1012.00    28.1    25.3    28.7    84 -99.0  -99
06/25/2019 11:20:00     3.0     160     4.0 1012.10    28.1    25.4    28.7    85 -99.0  -99